createdAt,value
2019-03-20T00:00:49.155Z,3.40
2019-03-20T00:03:23.551Z,3.20
2019-03-20T00:05:57.130Z,3.20
2019-03-20T00:08:30.849Z,3.20
2019-03-20T00:11:04.577Z,3.20
2019-03-20T00:13:38.163Z,3.30
2019-03-20T00:16:11.891Z,3.30
2019-03-20T00:18:45.506Z,3.10
2019-03-20T00:21:19.142Z,3.10
2019-03-20T00:23:52.920Z,3.10
2019-03-20T00:26:27.748Z,3.20
2019-03-20T00:29:02.267Z,3.20
2019-03-20T00:31:35.802Z,3.20
2019-03-20T00:34:10.204Z,2.90
2019-03-20T00:36:43.892Z,2.90
2019-03-20T00:39:17.484Z,2.90
2019-03-20T00:41:51.265Z,2.80
2019-03-20T00:44:25.094Z,2.80
2019-03-20T00:46:58.809Z,2.80
2019-03-20T00:49:33.174Z,2.80
2019-03-20T00:52:06.989Z,2.70
2019-03-20T00:54:40.687Z,2.70
2019-03-20T00:57:14.365Z,2.70
2019-03-20T00:59:47.981Z,2.70
2019-03-20T01:02:21.736Z,2.70
2019-03-20T01:04:56.104Z,2.70
2019-03-20T01:07:29.885Z,2.60
2019-03-20T01:10:03.590Z,2.70
2019-03-20T01:12:37.344Z,2.60
2019-03-20T01:15:11.846Z,2.60
2019-03-20T01:17:45.471Z,2.50
2019-03-20T01:20:19.202Z,2.50
2019-03-20T01:22:52.749Z,2.50
2019-03-20T01:25:26.340Z,2.40
2019-03-20T01:28:00.106Z,2.40
2019-03-20T01:30:36.846Z,2.40
2019-03-20T01:33:11.494Z,2.40
2019-03-20T01:35:45.204Z,2.40
2019-03-20T01:38:18.969Z,2.40
2019-03-20T01:40:52.554Z,2.40
2019-03-20T01:43:26.265Z,2.40
2019-03-20T01:45:59.850Z,2.40
2019-03-20T01:48:33.575Z,2.40
2019-03-20T01:51:23.036Z,2.30
2019-03-20T01:53:56.736Z,2.40
2019-03-20T01:56:30.391Z,2.30
2019-03-20T01:59:04.755Z,2.20
2019-03-20T02:01:39.184Z,2.20
2019-03-20T02:04:12.765Z,2.20
2019-03-20T02:06:47.142Z,2.20
2019-03-20T02:09:20.854Z,2.20
2019-03-20T02:11:54.632Z,2.10
2019-03-20T02:14:28.993Z,2.10
2019-03-20T02:17:02.614Z,2.10
2019-03-20T02:19:37.117Z,2.20
2019-03-20T02:22:11.578Z,2.20
2019-03-20T02:24:45.393Z,2.20
2019-03-20T02:27:20.079Z,2.10
2019-03-20T02:29:53.836Z,2.10
2019-03-20T02:32:27.412Z,2.10
2019-03-20T02:35:01.127Z,2.10
2019-03-20T02:37:34.804Z,2.10
2019-03-20T02:40:08.577Z,2.10
2019-03-20T02:42:42.350Z,2.10
2019-03-20T02:45:15.925Z,2.00
2019-03-20T02:47:49.757Z,2.00
2019-03-20T02:50:23.433Z,2.10
2019-03-20T02:52:57.758Z,2.10
2019-03-20T02:55:31.400Z,2.10
2019-03-20T02:58:05.259Z,2.10
2019-03-20T03:00:39.814Z,2.10
2019-03-20T03:03:13.533Z,2.00
2019-03-20T03:05:47.355Z,1.90
2019-03-20T03:08:21.122Z,1.80
2019-03-20T03:10:55.793Z,1.80
2019-03-20T03:13:29.128Z,1.70
2019-03-20T03:16:02.760Z,1.70
2019-03-20T03:18:36.447Z,1.70
2019-03-20T03:21:10.029Z,1.70
2019-03-20T03:23:43.632Z,1.70
2019-03-20T03:26:17.472Z,1.60
2019-03-20T03:28:51.235Z,1.70
2019-03-20T03:31:24.940Z,1.60
2019-03-20T03:33:58.314Z,1.60
2019-03-20T03:36:31.865Z,1.70
2019-03-20T03:39:06.390Z,1.60
2019-03-20T03:41:40.061Z,1.60
2019-03-20T03:44:13.655Z,1.70
2019-03-20T03:46:47.313Z,1.60
2019-03-20T03:49:20.847Z,1.70
2019-03-20T03:51:54.416Z,1.60
2019-03-20T03:54:28.157Z,1.70
2019-03-20T03:57:01.764Z,1.70
2019-03-20T03:59:35.495Z,1.60
2019-03-20T04:02:09.824Z,1.60
2019-03-20T04:04:43.550Z,1.60
2019-03-20T04:07:17.239Z,1.50
2019-03-20T04:09:50.930Z,1.50
2019-03-20T04:12:24.477Z,1.50
2019-03-20T04:14:58.150Z,1.50
2019-03-20T04:17:31.837Z,1.50
2019-03-20T04:20:08.291Z,1.50
2019-03-20T04:22:41.982Z,1.60
2019-03-20T04:25:15.778Z,1.60
2019-03-20T04:27:49.407Z,1.60
2019-03-20T04:30:23.104Z,1.60
2019-03-20T04:32:56.836Z,1.60
2019-03-20T04:35:30.474Z,1.60
2019-03-20T04:38:04.070Z,1.50
2019-03-20T04:40:37.617Z,1.50
2019-03-20T04:43:11.952Z,1.60
2019-03-20T04:45:46.409Z,1.50
2019-03-20T04:48:20.000Z,1.50
2019-03-20T04:50:53.758Z,1.40
2019-03-20T04:53:27.459Z,1.20
2019-03-20T04:56:01.269Z,1.20
2019-03-20T04:58:34.864Z,1.20
2019-03-20T05:01:08.714Z,1.20
2019-03-20T05:03:42.475Z,1.20
2019-03-20T05:06:16.234Z,1.20
2019-03-20T05:08:50.725Z,1.30
2019-03-20T05:11:24.513Z,1.20
2019-03-20T05:13:58.098Z,1.30
2019-03-20T05:16:31.708Z,1.40
2019-03-20T05:19:05.215Z,1.40
2019-03-20T05:21:38.983Z,1.30
2019-03-20T05:24:12.497Z,1.20
2019-03-20T05:26:46.117Z,1.30
2019-03-20T05:29:19.720Z,1.30
2019-03-20T05:31:53.415Z,1.30
2019-03-20T05:34:27.104Z,1.30
2019-03-20T05:37:09.960Z,1.30
2019-03-20T05:39:34.766Z,1.40
2019-03-20T05:42:08.478Z,1.50
2019-03-20T05:44:42.243Z,1.60
2019-03-20T05:47:16.545Z,1.60
2019-03-20T05:49:51.027Z,1.60
2019-03-20T05:52:24.618Z,1.60
2019-03-20T05:54:59.296Z,1.60
2019-03-20T05:57:33.148Z,1.60
2019-03-20T06:00:07.657Z,1.70
2019-03-20T06:02:41.507Z,1.80
2019-03-20T06:05:15.063Z,1.80
2019-03-20T06:07:48.839Z,1.70
2019-03-20T06:10:22.504Z,2.10
2019-03-20T06:12:56.317Z,3.40
2019-03-20T06:15:30.126Z,4.10
2019-03-20T06:18:03.965Z,4.30
2019-03-20T06:20:37.767Z,4.10
2019-03-20T06:23:11.571Z,3.70
2019-03-20T06:25:45.274Z,3.20
2019-03-20T06:28:18.910Z,2.80
2019-03-20T06:30:52.492Z,2.60
2019-03-20T06:33:26.317Z,2.50
2019-03-20T06:36:00.107Z,2.50
2019-03-20T06:38:33.867Z,2.40
2019-03-20T06:41:08.386Z,2.70
2019-03-20T06:43:42.717Z,2.60
2019-03-20T06:46:17.267Z,2.80
2019-03-20T06:48:51.141Z,2.90
2019-03-20T06:51:24.902Z,2.90
2019-03-20T06:53:58.528Z,2.90
2019-03-20T06:56:32.218Z,2.90
2019-03-20T06:59:17.880Z,3.00
2019-03-20T07:01:52.397Z,3.30
2019-03-20T07:04:42.060Z,3.20
2019-03-20T07:07:20.498Z,3.20
2019-03-20T07:10:11.913Z,3.20
2019-03-20T07:12:45.458Z,3.20
2019-03-20T07:15:19.352Z,3.20
2019-03-20T07:17:52.904Z,3.30
2019-03-20T07:20:26.665Z,3.30
2019-03-20T07:23:00.531Z,3.40
2019-03-20T07:25:34.258Z,3.40
2019-03-20T07:28:07.947Z,3.60
2019-03-20T07:30:41.618Z,3.70
2019-03-20T07:33:15.186Z,3.60
2019-03-20T07:35:48.904Z,3.80
2019-03-20T07:38:23.502Z,3.90
2019-03-20T07:40:57.303Z,3.90
2019-03-20T07:43:31.146Z,4.00
2019-03-20T07:46:04.948Z,4.20
2019-03-20T07:48:40.663Z,4.30
2019-03-20T07:51:12.323Z,4.40
2019-03-20T07:53:46.013Z,4.50
2019-03-20T07:56:19.723Z,4.70
2019-03-20T07:58:53.349Z,4.80
2019-03-20T08:01:27.140Z,5.00
2019-03-20T08:04:00.721Z,5.10
2019-03-20T08:06:34.480Z,5.20
2019-03-20T08:09:08.228Z,5.30
2019-03-20T08:11:42.062Z,5.50
2019-03-20T08:14:15.671Z,5.50
2019-03-20T08:16:49.253Z,5.60
2019-03-20T08:19:22.812Z,5.80
2019-03-20T08:21:56.571Z,6.30
2019-03-20T08:24:30.250Z,7.10
2019-03-20T08:27:04.621Z,9.70
2019-03-20T08:29:38.378Z,9.60
2019-03-20T08:32:12.021Z,11.00
2019-03-20T08:34:45.856Z,12.10
2019-03-20T08:37:19.655Z,12.90
2019-03-20T08:39:53.501Z,13.50
2019-03-20T08:42:27.210Z,14.00
2019-03-20T08:45:00.941Z,14.00
2019-03-20T08:47:34.510Z,13.70
2019-03-20T08:50:12.925Z,13.90
2019-03-20T08:52:46.594Z,14.70
2019-03-20T08:55:20.957Z,16.30
2019-03-20T08:57:54.712Z,16.30
2019-03-20T09:00:28.432Z,16.60
2019-03-20T09:03:02.295Z,16.80
2019-03-20T09:05:36.646Z,16.50
2019-03-20T09:08:10.343Z,16.40
2019-03-20T09:10:44.107Z,17.00
2019-03-20T09:13:17.830Z,17.50
2019-03-20T09:15:51.634Z,17.90
2019-03-20T09:18:25.289Z,18.20
2019-03-20T09:20:59.061Z,18.50
2019-03-20T09:23:32.844Z,18.30
2019-03-20T09:26:07.366Z,17.50
2019-03-20T09:28:41.005Z,17.50
2019-03-20T09:31:14.535Z,16.90
2019-03-20T09:33:48.168Z,16.10
2019-03-20T09:36:21.911Z,17.40
2019-03-20T09:38:55.754Z,18.70
2019-03-20T09:41:29.326Z,19.70
2019-03-20T09:44:03.127Z,18.80
2019-03-20T09:46:37.457Z,20.20
2019-03-20T09:49:11.061Z,20.10
2019-03-20T09:51:44.690Z,19.30
2019-03-20T09:54:18.296Z,19.80
2019-03-20T09:56:51.995Z,19.50
2019-03-20T09:59:26.359Z,20.80
2019-03-20T10:02:00.130Z,21.20
2019-03-20T10:04:33.948Z,19.60
2019-03-20T10:07:07.585Z,20.50
2019-03-20T10:09:41.368Z,18.80
2019-03-20T10:12:14.979Z,20.50
2019-03-20T10:14:48.431Z,21.70
2019-03-20T10:17:21.943Z,20.20
2019-03-20T10:19:55.616Z,21.50
2019-03-20T10:22:30.092Z,23.60
2019-03-20T10:25:03.806Z,23.60
2019-03-20T10:27:38.479Z,20.80
2019-03-20T10:30:17.099Z,20.90
2019-03-20T10:32:50.681Z,20.90
2019-03-20T10:35:24.321Z,21.90
2019-03-20T10:37:58.821Z,23.20
2019-03-20T10:40:32.513Z,23.20
2019-03-20T10:43:06.855Z,21.30
2019-03-20T10:45:41.245Z,19.10
2019-03-20T10:48:15.684Z,21.80
2019-03-20T10:50:49.457Z,21.80
2019-03-20T10:53:23.361Z,24.00
2019-03-20T10:55:57.121Z,26.30
2019-03-20T10:58:30.961Z,26.30
2019-03-20T11:01:04.716Z,27.00
2019-03-20T11:03:39.352Z,26.90
2019-03-20T11:06:13.809Z,26.40
2019-03-20T11:08:47.550Z,26.30
2019-03-20T11:11:27.120Z,25.70
2019-03-20T11:13:55.883Z,25.70
2019-03-20T11:16:29.611Z,25.60
2019-03-20T11:19:03.336Z,24.40
2019-03-20T11:21:36.939Z,25.50
2019-03-20T11:24:10.531Z,27.10
2019-03-20T11:26:44.105Z,28.20
2019-03-20T11:29:21.433Z,28.60
2019-03-20T11:31:51.411Z,28.50
2019-03-20T11:34:25.228Z,29.40
2019-03-20T11:36:58.963Z,28.50
2019-03-20T11:39:32.705Z,26.60
2019-03-20T11:42:07.159Z,24.80
2019-03-20T11:44:40.864Z,24.70
2019-03-20T11:47:14.674Z,24.70
2019-03-20T11:49:48.398Z,23.80
2019-03-20T11:52:22.251Z,22.50
2019-03-20T11:54:56.067Z,18.40
2019-03-20T11:57:29.887Z,15.80
2019-03-20T12:00:03.554Z,14.40
2019-03-20T12:02:37.174Z,13.60
2019-03-20T12:05:10.899Z,13.40
2019-03-20T12:07:44.534Z,13.10
2019-03-20T12:10:21.623Z,13.00
2019-03-20T12:12:55.157Z,13.00
2019-03-20T12:15:28.800Z,13.10
2019-03-20T12:18:03.134Z,13.10
2019-03-20T12:20:36.935Z,13.10
2019-03-20T12:23:10.536Z,12.90
2019-03-20T12:25:45.026Z,12.90
2019-03-20T12:28:18.689Z,12.80
2019-03-20T12:30:53.133Z,12.30
2019-03-20T12:33:26.772Z,12.30
2019-03-20T12:36:00.618Z,12.50
2019-03-20T12:38:34.545Z,12.50
2019-03-20T12:41:08.244Z,12.40
2019-03-20T12:43:45.251Z,12.50
2019-03-20T12:46:16.535Z,12.50
2019-03-20T12:48:50.216Z,12.50
2019-03-20T12:51:24.049Z,12.50
2019-03-20T12:53:57.813Z,12.50
2019-03-20T12:56:32.336Z,12.60
2019-03-20T12:59:06.170Z,12.60
2019-03-20T13:01:40.027Z,12.70
2019-03-20T13:04:13.767Z,12.80
2019-03-20T13:06:48.203Z,12.70
2019-03-20T13:09:21.790Z,12.70
2019-03-20T13:11:55.379Z,12.70
2019-03-20T13:14:29.208Z,12.70
2019-03-20T13:17:03.954Z,12.60
2019-03-20T13:19:38.566Z,12.50
2019-03-20T13:22:12.865Z,12.60
2019-03-20T13:24:47.378Z,12.70
2019-03-20T13:27:21.190Z,12.60
2019-03-20T13:29:54.924Z,12.60
2019-03-20T13:32:28.727Z,12.50
2019-03-20T13:35:02.438Z,12.50
2019-03-20T13:37:36.189Z,12.50
2019-03-20T13:40:14.280Z,12.50
2019-03-20T13:42:43.646Z,12.50
2019-03-20T13:45:21.209Z,12.40
2019-03-20T13:47:54.926Z,12.40
2019-03-20T13:50:28.653Z,12.50
2019-03-20T13:53:02.350Z,12.70
2019-03-20T13:55:36.213Z,12.80
2019-03-20T13:58:10.012Z,12.80
2019-03-20T14:00:43.650Z,12.80
2019-03-20T14:03:18.421Z,12.80
2019-03-20T14:05:52.710Z,12.80
2019-03-20T14:08:26.635Z,12.70
2019-03-20T14:11:00.393Z,12.70
2019-03-20T14:13:34.109Z,12.70
2019-03-20T14:16:07.861Z,12.60
2019-03-20T14:18:42.384Z,12.70
2019-03-20T14:21:16.136Z,12.70
2019-03-20T14:23:50.058Z,12.80
2019-03-20T14:26:23.927Z,12.80
2019-03-20T14:28:57.674Z,12.80
2019-03-20T14:31:31.235Z,12.80
2019-03-20T14:34:04.821Z,12.70
2019-03-20T14:36:38.552Z,12.40
2019-03-20T14:39:13.299Z,12.40
2019-03-20T14:41:47.176Z,12.50
2019-03-20T14:44:20.829Z,12.60
2019-03-20T14:46:55.422Z,12.70
2019-03-20T14:49:29.160Z,12.70
2019-03-20T14:52:02.926Z,12.80
2019-03-20T14:54:37.435Z,12.60
2019-03-20T14:57:11.106Z,12.60
2019-03-20T14:59:45.379Z,12.60
2019-03-20T15:02:19.746Z,12.70
2019-03-20T15:04:54.284Z,12.70
2019-03-20T15:07:27.937Z,12.70
2019-03-20T15:10:02.391Z,12.60
2019-03-20T15:12:38.692Z,12.70
2019-03-20T15:15:15.082Z,12.70
2019-03-20T15:17:48.904Z,12.70
2019-03-20T15:20:22.520Z,12.80
2019-03-20T15:22:56.210Z,12.80
2019-03-20T15:25:29.875Z,12.80
2019-03-20T15:28:04.328Z,12.60
2019-03-20T15:30:38.092Z,12.60
2019-03-20T15:33:12.424Z,12.50
2019-03-20T15:35:47.463Z,12.50
2019-03-20T15:38:21.118Z,12.50
2019-03-20T15:40:56.337Z,12.50
2019-03-20T15:43:28.577Z,12.60
2019-03-20T15:46:02.426Z,12.50
2019-03-20T15:48:36.919Z,12.50
2019-03-20T15:51:10.620Z,12.50
2019-03-20T15:53:44.191Z,12.40
2019-03-20T15:56:17.785Z,12.40
2019-03-20T15:58:51.747Z,12.40
2019-03-20T16:01:25.469Z,12.40
2019-03-20T16:03:59.135Z,12.40
2019-03-20T16:06:32.764Z,12.40
2019-03-20T16:09:06.424Z,12.40
2019-03-20T16:11:40.005Z,12.40
2019-03-20T16:14:13.691Z,12.30
2019-03-20T16:16:47.534Z,12.30
2019-03-20T16:19:21.229Z,12.20
2019-03-20T16:21:54.959Z,12.20
2019-03-20T16:24:28.665Z,12.20
2019-03-20T16:27:02.379Z,12.20
2019-03-20T16:29:36.336Z,12.20
2019-03-20T16:32:09.989Z,12.20
2019-03-20T16:34:43.675Z,12.20
2019-03-20T16:37:17.384Z,12.10
2019-03-20T16:39:51.257Z,12.10
2019-03-20T16:42:25.788Z,11.90
2019-03-20T16:44:59.573Z,11.90
2019-03-20T16:47:33.311Z,11.90
2019-03-20T16:50:07.751Z,11.80
2019-03-20T16:52:41.596Z,11.80
2019-03-20T16:55:15.365Z,11.80
2019-03-20T16:57:49.026Z,11.80
2019-03-20T17:00:25.466Z,11.70
2019-03-20T17:02:59.235Z,11.70
2019-03-20T17:05:34.247Z,11.60
2019-03-20T17:08:08.698Z,11.60
2019-03-20T17:10:43.269Z,11.50
2019-03-20T17:13:17.673Z,11.50
2019-03-20T17:15:52.712Z,11.40
2019-03-20T17:18:27.406Z,11.50
2019-03-20T17:21:01.216Z,11.40
2019-03-20T17:23:34.914Z,11.40
2019-03-20T17:26:08.964Z,11.40
2019-03-20T17:28:42.633Z,11.30
2019-03-20T17:31:16.342Z,11.30
2019-03-20T17:33:50.194Z,11.30
2019-03-20T17:36:24.626Z,11.20
2019-03-20T17:38:58.360Z,11.20
2019-03-20T17:41:36.579Z,11.10
2019-03-20T17:44:05.681Z,11.10
2019-03-20T17:46:40.144Z,11.00
2019-03-20T17:49:13.728Z,11.00
2019-03-20T17:51:47.523Z,11.00
2019-03-20T17:54:21.288Z,10.90
2019-03-20T17:56:54.944Z,10.80
2019-03-20T17:59:28.762Z,10.80
2019-03-20T18:02:02.544Z,10.70
2019-03-20T18:04:36.919Z,10.50
2019-03-20T18:07:10.729Z,10.50
2019-03-20T18:09:44.324Z,10.50
2019-03-20T18:12:18.005Z,10.50
2019-03-20T18:14:51.747Z,10.40
2019-03-20T18:17:25.323Z,10.40
2019-03-20T18:19:59.060Z,10.30
2019-03-20T18:22:33.550Z,10.20
2019-03-20T18:25:07.169Z,10.30
2019-03-20T18:27:40.772Z,10.20
2019-03-20T18:30:23.252Z,10.10
2019-03-20T18:32:56.949Z,10.00
2019-03-20T18:35:30.699Z,9.80
2019-03-20T18:38:05.293Z,9.60
2019-03-20T18:40:39.098Z,9.60
2019-03-20T18:43:12.830Z,9.60
2019-03-20T18:45:46.526Z,9.50
2019-03-20T18:48:20.217Z,9.40
2019-03-20T18:50:53.940Z,9.40
2019-03-20T18:53:28.435Z,9.30
2019-03-20T18:56:02.697Z,9.20
2019-03-20T18:58:36.246Z,9.20
2019-03-20T19:01:10.143Z,9.00
2019-03-20T19:03:44.277Z,8.90
2019-03-20T19:06:21.590Z,8.90
2019-03-20T19:08:55.277Z,8.90
2019-03-20T19:11:29.005Z,8.90
2019-03-20T19:14:03.583Z,8.70
2019-03-20T19:16:38.067Z,8.60
2019-03-20T19:19:12.457Z,8.60
2019-03-20T19:21:46.052Z,8.50
2019-03-20T19:24:19.786Z,8.40
2019-03-20T19:26:53.654Z,8.40
2019-03-20T19:29:27.420Z,8.40
2019-03-20T19:32:01.238Z,8.30
2019-03-20T19:34:34.875Z,8.30
2019-03-20T19:37:09.306Z,8.30
2019-03-20T19:39:43.056Z,8.20
2019-03-20T19:42:20.171Z,8.20
2019-03-20T19:44:50.574Z,8.20
2019-03-20T19:47:24.275Z,8.20
2019-03-20T19:49:57.775Z,8.20
2019-03-20T19:52:31.553Z,8.10
2019-03-20T19:55:06.245Z,8.10
2019-03-20T19:57:39.829Z,8.10
2019-03-20T20:00:16.856Z,8.10
2019-03-20T20:02:50.439Z,8.00
2019-03-20T20:05:24.256Z,7.90
2019-03-20T20:07:57.924Z,7.80
2019-03-20T20:10:31.710Z,7.80
2019-03-20T20:13:05.279Z,7.80
2019-03-20T20:15:38.857Z,7.70
2019-03-20T20:18:12.793Z,7.60
2019-03-20T20:20:46.289Z,7.50
2019-03-20T20:23:20.907Z,7.40
2019-03-20T20:25:54.512Z,7.40
2019-03-20T20:28:28.919Z,7.30
2019-03-20T20:31:02.669Z,7.20
2019-03-20T20:33:38.194Z,7.20
2019-03-20T20:36:09.964Z,7.20
2019-03-20T20:38:43.607Z,7.10
2019-03-20T20:41:17.212Z,7.10
2019-03-20T20:43:50.886Z,7.10
2019-03-20T20:46:24.448Z,7.10
2019-03-20T20:48:58.279Z,7.10
2019-03-20T20:51:31.973Z,7.10
2019-03-20T20:54:05.765Z,7.00
2019-03-20T20:56:39.398Z,7.00
2019-03-20T20:59:13.100Z,6.90
2019-03-20T21:01:47.526Z,6.80
2019-03-20T21:04:21.098Z,6.80
2019-03-20T21:06:54.822Z,6.70
2019-03-20T21:09:28.378Z,6.70
2019-03-20T21:12:01.950Z,6.60
2019-03-20T21:14:36.287Z,6.60
2019-03-20T21:17:10.575Z,6.60
2019-03-20T21:19:44.328Z,6.60
2019-03-20T21:35:58.230Z,6.30
2019-03-20T21:38:31.903Z,6.20
2019-03-20T21:47:32.007Z,6.10
2019-03-20T21:50:24.463Z,6.10
2019-03-20T21:52:58.249Z,6.10
2019-03-20T21:55:43.893Z,6.00
2019-03-20T21:58:19.019Z,6.00
2019-03-20T22:01:19.636Z,6.00
2019-03-20T22:03:53.234Z,5.90
2019-03-20T22:06:43.802Z,5.80
2019-03-20T22:09:18.220Z,5.80
2019-03-20T22:12:12.702Z,5.80
2019-03-20T22:14:48.269Z,5.80
2019-03-20T22:17:50.782Z,5.80
2019-03-20T22:20:26.908Z,5.80
2019-03-20T22:23:06.602Z,5.70
2019-03-20T22:25:48.049Z,5.60
2019-03-20T22:28:46.236Z,5.50
2019-03-20T22:31:19.835Z,5.40
2019-03-20T22:34:06.197Z,5.20
2019-03-20T22:36:39.785Z,5.20
2019-03-20T22:39:35.843Z,5.20
2019-03-20T22:42:13.095Z,5.20
2019-03-20T22:44:49.555Z,5.10
2019-03-20T22:50:43.749Z,5.00
2019-03-20T22:53:23.179Z,4.90
2019-03-20T22:58:52.604Z,4.90
2019-03-20T23:01:28.535Z,5.10
2019-03-20T23:04:07.392Z,5.10
2019-03-20T23:06:41.122Z,5.10
2019-03-20T23:09:14.741Z,5.00
2019-03-20T23:11:48.509Z,5.00
2019-03-20T23:14:22.358Z,4.90
2019-03-20T23:16:56.755Z,4.90
2019-03-20T23:19:30.426Z,4.80
2019-03-20T23:22:04.058Z,4.80
2019-03-20T23:24:37.742Z,4.70
2019-03-20T23:27:12.422Z,4.70
2019-03-20T23:29:46.698Z,4.60
2019-03-20T23:32:20.436Z,4.60
2019-03-20T23:34:54.188Z,4.60
2019-03-20T23:37:28.687Z,4.50
2019-03-20T23:40:02.283Z,4.50
2019-03-20T23:42:36.088Z,4.50
2019-03-20T23:45:10.714Z,4.40
2019-03-20T23:47:47.368Z,4.40
2019-03-20T23:50:20.967Z,4.40
2019-03-20T23:52:54.546Z,4.30
2019-03-20T23:55:28.158Z,4.20
2019-03-20T23:58:01.764Z,4.20
